createdAt,value
2023-01-11T00:00:36.001Z,1.67
2023-01-11T00:03:10.758Z,1.60
2023-01-11T00:05:40.913Z,1.50
2023-01-11T00:08:15.054Z,2.30
2023-01-11T00:10:44.378Z,1.53
2023-01-11T00:13:15.729Z,1.33
2023-01-11T00:15:48.895Z,1.37
2023-01-11T00:18:17.244Z,2.13
2023-01-11T00:20:48.880Z,1.50
2023-01-11T00:23:20.177Z,2.77
2023-01-11T00:25:50.706Z,2.20
2023-01-11T00:28:21.594Z,1.57
2023-01-11T00:30:51.181Z,1.60
2023-01-11T00:33:21.322Z,1.87
2023-01-11T00:35:54.255Z,1.77
2023-01-11T00:38:37.333Z,2.50
2023-01-11T00:41:27.799Z,1.40
2023-01-11T00:44:16.461Z,1.70
2023-01-11T00:47:02.508Z,1.87
2023-01-11T00:49:32.934Z,2.00
2023-01-11T00:52:02.737Z,1.43
2023-01-11T00:54:32.691Z,2.53
2023-01-11T00:57:01.231Z,1.90
2023-01-11T00:59:35.739Z,1.53
2023-01-11T01:02:04.815Z,1.73
2023-01-11T01:04:34.293Z,1.27
2023-01-11T01:07:03.706Z,2.10
2023-01-11T01:09:33.767Z,1.90
2023-01-11T01:12:03.658Z,1.53
2023-01-11T01:14:34.125Z,1.70
2023-01-11T01:17:03.888Z,1.80
2023-01-11T01:19:35.554Z,2.17
2023-01-11T01:22:06.177Z,1.50
2023-01-11T01:24:36.328Z,1.80
2023-01-11T01:27:05.856Z,1.20
2023-01-11T01:29:39.001Z,1.57
2023-01-11T01:32:08.138Z,1.80
2023-01-11T01:34:37.842Z,1.70
2023-01-11T01:37:09.301Z,1.87
2023-01-11T01:39:40.892Z,2.17
2023-01-11T01:42:15.753Z,1.60
2023-01-11T01:45:08.148Z,2.27
2023-01-11T01:47:47.597Z,1.60
2023-01-11T01:50:24.718Z,2.10
2023-01-11T01:53:01.114Z,1.77
2023-01-11T01:55:34.441Z,1.30
2023-01-11T01:58:06.781Z,1.73
2023-01-11T02:00:39.725Z,1.80
2023-01-11T02:03:12.350Z,1.90
2023-01-11T02:05:40.805Z,1.73
2023-01-11T02:08:15.936Z,1.30
2023-01-11T02:10:44.181Z,1.63
2023-01-11T02:13:14.409Z,1.83
2023-01-11T02:15:46.218Z,1.43
2023-01-11T02:18:16.065Z,1.13
2023-01-11T02:21:01.905Z,1.47
2023-01-11T02:23:58.620Z,1.37
2023-01-11T02:27:02.542Z,1.33
2023-01-11T02:29:42.630Z,1.30
2023-01-11T02:32:22.628Z,1.10
2023-01-11T02:34:59.676Z,1.20
2023-01-11T02:37:33.752Z,1.50
2023-01-11T02:40:08.515Z,1.23
2023-01-11T02:42:57.423Z,1.30
2023-01-11T02:45:39.073Z,1.80
2023-01-11T02:48:18.482Z,1.70
2023-01-11T02:50:51.031Z,0.93
2023-01-11T02:53:25.820Z,2.37
2023-01-11T02:55:58.469Z,1.60
2023-01-11T02:58:31.897Z,1.13
2023-01-11T03:01:03.616Z,2.00
2023-01-11T03:03:33.729Z,1.60
2023-01-11T03:06:05.466Z,1.07
2023-01-11T03:12:08.016Z,1.13
2023-01-11T03:14:52.568Z,1.50
2023-01-11T03:17:40.881Z,1.30
2023-01-11T03:20:19.855Z,1.47
2023-01-11T03:22:57.657Z,1.30
2023-01-11T03:25:34.057Z,1.17
2023-01-11T03:28:06.628Z,1.40
2023-01-11T03:30:42.289Z,1.50
2023-01-11T03:33:19.944Z,1.43
2023-01-11T03:35:50.457Z,1.13
2023-01-11T03:38:22.480Z,1.87
2023-01-11T03:40:54.997Z,1.20
2023-01-11T03:43:26.334Z,0.90
2023-01-11T03:45:59.799Z,1.70
2023-01-11T03:48:36.756Z,1.20
2023-01-11T03:51:16.717Z,1.20
2023-01-11T03:53:47.839Z,1.47
2023-01-11T03:56:22.581Z,2.43
2023-01-11T03:58:51.298Z,0.57
2023-01-11T04:01:28.493Z,1.20
2023-01-11T04:04:00.278Z,1.60
2023-01-11T04:06:28.982Z,1.87
2023-01-11T04:08:57.926Z,1.03
2023-01-11T04:11:26.287Z,0.90
2023-01-11T04:13:54.717Z,1.17
2023-01-11T04:16:24.649Z,1.30
2023-01-11T04:18:54.185Z,1.13
2023-01-11T04:21:24.960Z,1.60
2023-01-11T04:23:54.168Z,1.50
2023-01-11T04:26:26.002Z,0.80
2023-01-11T04:28:55.039Z,1.03
2023-01-11T04:31:26.731Z,1.03
2023-01-11T04:33:55.565Z,1.77
2023-01-11T04:36:29.231Z,1.87
2023-01-11T04:39:00.297Z,0.83
2023-01-11T04:41:47.380Z,1.10
2023-01-11T04:44:16.292Z,1.33
2023-01-11T04:46:48.801Z,1.20
2023-01-11T04:49:17.996Z,1.10
2023-01-11T04:51:54.801Z,0.90
2023-01-11T04:54:30.765Z,1.30
2023-01-11T04:56:59.969Z,1.17
2023-01-11T04:59:31.423Z,1.10
2023-01-11T05:02:00.683Z,1.00
2023-01-11T05:04:30.966Z,1.53
2023-01-11T05:07:03.335Z,1.30
2023-01-11T05:09:34.669Z,1.23
2023-01-11T05:12:05.361Z,0.87
2023-01-11T05:14:36.451Z,1.23
2023-01-11T05:17:07.348Z,1.20
2023-01-11T05:19:38.156Z,1.23
2023-01-11T05:22:09.464Z,1.80
2023-01-11T05:24:40.225Z,0.97
2023-01-11T05:27:09.544Z,1.10
2023-01-11T05:29:38.272Z,0.80
2023-01-11T05:32:08.066Z,1.57
2023-01-11T05:34:37.839Z,1.20
2023-01-11T05:37:11.338Z,1.10
2023-01-11T05:39:41.589Z,1.60
2023-01-11T05:42:14.729Z,1.33
2023-01-11T05:45:02.108Z,1.00
2023-01-11T05:47:32.169Z,1.00
2023-01-11T05:50:01.597Z,1.03
2023-01-11T05:52:36.583Z,1.00
2023-01-11T05:55:08.642Z,0.80
2023-01-11T05:57:47.866Z,1.00
2023-01-11T06:00:21.905Z,1.27
2023-01-11T06:02:51.275Z,1.40
2023-01-11T06:05:20.228Z,0.90
2023-01-11T06:07:52.248Z,1.33
2023-01-11T06:10:24.641Z,1.10
2023-01-11T06:13:16.534Z,1.20
2023-01-11T06:15:45.295Z,1.27
2023-01-11T06:18:13.897Z,0.80
2023-01-11T06:20:43.227Z,1.00
2023-01-11T06:23:14.838Z,1.10
2023-01-11T06:25:45.282Z,1.03
2023-01-11T06:28:15.164Z,1.20
2023-01-11T06:30:44.211Z,1.00
2023-01-11T06:33:13.542Z,1.13
2023-01-11T06:35:45.541Z,0.90
2023-01-11T06:38:17.794Z,0.90
2023-01-11T06:40:53.161Z,1.10
2023-01-11T06:43:21.702Z,1.37
2023-01-11T06:45:51.497Z,1.30
2023-01-11T06:48:20.718Z,1.20
2023-01-11T06:50:49.693Z,0.70
2023-01-11T06:53:22.034Z,1.23
2023-01-11T06:55:51.400Z,0.73
2023-01-11T06:58:19.676Z,0.97
2023-01-11T07:00:47.967Z,1.00
2023-01-11T07:03:16.383Z,0.80
2023-01-11T07:05:45.705Z,1.17
2023-01-11T07:08:13.903Z,1.20
2023-01-11T07:10:44.031Z,1.00
2023-01-11T07:13:16.333Z,1.60
2023-01-11T07:15:45.495Z,1.77
2023-01-11T07:18:14.835Z,1.13
2023-01-11T07:20:45.323Z,0.70
2023-01-11T07:23:16.021Z,1.03
2023-01-11T07:25:45.982Z,1.43
2023-01-11T07:28:14.205Z,0.80
2023-01-11T07:30:56.741Z,0.70
2023-01-11T07:33:36.605Z,1.40
2023-01-11T07:36:15.661Z,1.20
2023-01-11T07:38:55.797Z,1.00
2023-01-11T07:41:46.809Z,0.80
2023-01-11T07:44:17.189Z,0.70
2023-01-11T07:46:48.729Z,1.23
2023-01-11T07:49:25.915Z,0.77
2023-01-11T07:51:57.367Z,1.03
2023-01-11T07:54:28.467Z,0.73
2023-01-11T07:57:07.142Z,1.47
2023-01-11T07:59:35.337Z,1.50
2023-01-11T08:02:06.236Z,1.07
2023-01-11T08:04:36.015Z,1.00
2023-01-11T08:07:04.377Z,0.90
2023-01-11T08:09:32.840Z,0.80
2023-01-11T08:12:20.028Z,1.10
2023-01-11T08:14:48.104Z,0.90
2023-01-11T08:17:17.385Z,0.93
2023-01-11T08:19:45.806Z,0.87
2023-01-11T08:22:14.036Z,1.20
2023-01-11T08:24:42.344Z,1.33
2023-01-11T08:27:12.505Z,1.40
2023-01-11T08:29:44.118Z,0.90
2023-01-11T08:32:12.686Z,1.00
2023-01-11T08:34:41.099Z,0.80
2023-01-11T08:37:09.181Z,1.10
2023-01-11T08:39:37.271Z,1.50
2023-01-11T08:42:07.317Z,0.87
2023-01-11T08:44:36.957Z,0.93
2023-01-11T08:47:05.251Z,1.37
2023-01-11T08:49:33.823Z,1.17
2023-01-11T08:52:02.185Z,1.20
2023-01-11T08:54:30.526Z,0.90
2023-01-11T08:56:58.521Z,3.73
2023-01-11T08:59:26.716Z,1.10
2023-01-11T09:01:56.516Z,1.10
2023-01-11T09:04:25.813Z,1.10
2023-01-11T09:06:54.500Z,1.30
2023-01-11T09:09:23.542Z,1.20
2023-01-11T09:11:59.007Z,0.80
2023-01-11T09:14:28.282Z,0.90
2023-01-11T09:16:58.475Z,0.70
2023-01-11T09:19:26.847Z,0.77
2023-01-11T09:21:57.889Z,0.97
2023-01-11T09:24:25.971Z,1.27
2023-01-11T09:26:54.172Z,1.00
2023-01-11T09:29:22.313Z,0.97
2023-01-11T09:31:50.294Z,1.10
2023-01-11T09:34:21.221Z,0.77
2023-01-11T09:36:49.847Z,1.00
2023-01-11T09:39:20.445Z,0.90
2023-01-11T09:42:19.388Z,0.80
2023-01-11T09:44:52.268Z,0.90
2023-01-11T09:47:29.360Z,0.90
2023-01-11T09:50:02.220Z,1.10
2023-01-11T09:52:34.247Z,1.00
2023-01-11T09:55:02.875Z,0.80
2023-01-11T09:57:40.385Z,0.90
2023-01-11T10:00:17.935Z,0.93
2023-01-11T10:03:00.049Z,0.97
2023-01-11T10:05:55.974Z,1.03
2023-01-11T10:18:25.680Z,0.97
2023-01-11T10:18:29.452Z,1.00
2023-01-11T10:20:27.609Z,0.90
2023-01-11T10:23:04.376Z,1.27
2023-01-11T10:25:42.279Z,1.03
2023-01-11T10:28:17.449Z,1.20
2023-01-11T10:31:01.604Z,1.40
2023-01-11T10:33:46.436Z,1.03
2023-01-11T10:36:34.861Z,1.07
2023-01-11T10:39:32.258Z,1.10
2023-01-11T10:42:07.871Z,0.77
2023-01-11T10:44:39.737Z,1.57
2023-01-11T10:47:13.805Z,1.10
2023-01-11T10:49:46.439Z,1.40
2023-01-11T10:52:29.557Z,1.00
2023-01-11T10:55:01.113Z,1.20
2023-01-11T10:57:59.455Z,1.70
2023-01-11T11:00:36.477Z,0.93
2023-01-11T11:03:27.833Z,1.10
2023-01-11T11:06:01.115Z,0.97
2023-01-11T11:08:32.702Z,1.33
2023-01-11T11:11:04.691Z,0.30
2023-01-11T11:13:44.560Z,0.30
2023-01-11T11:16:29.732Z,0.30
2023-01-11T11:19:00.863Z,0.30
2023-01-11T11:21:32.914Z,0.30
2023-01-11T11:24:04.269Z,0.30
2023-01-11T11:26:38.508Z,0.30
2023-01-11T11:29:08.218Z,0.30
2023-01-11T11:31:37.799Z,0.30
2023-01-11T11:34:07.579Z,0.30
2023-01-11T11:36:43.895Z,0.30
2023-01-11T11:39:18.937Z,0.30
2023-01-11T11:41:50.835Z,0.30
2023-01-11T11:44:21.023Z,0.20
2023-01-11T11:47:02.407Z,0.30
2023-01-11T11:49:31.854Z,0.30
2023-01-11T11:52:00.555Z,0.30
2023-01-11T11:54:30.594Z,0.30
2023-01-11T11:57:01.842Z,0.30
2023-01-11T11:59:33.448Z,0.30
2023-01-11T12:02:04.127Z,0.40
2023-01-11T12:04:36.660Z,0.30
2023-01-11T12:07:10.022Z,0.30
2023-01-11T12:09:38.430Z,0.30
2023-01-11T12:12:08.594Z,0.30
2023-01-11T12:14:36.939Z,0.30
2023-01-11T12:17:31.839Z,0.30
2023-01-11T12:20:00.994Z,0.30
2023-01-11T12:22:51.249Z,0.30
2023-01-11T12:25:28.230Z,0.30
2023-01-11T12:28:05.559Z,0.30
2023-01-11T12:30:37.246Z,0.30
2023-01-11T12:33:28.050Z,0.30
2023-01-11T12:36:05.879Z,0.30
2023-01-11T12:38:52.678Z,0.30
2023-01-11T12:41:51.067Z,0.30
2023-01-11T12:44:47.981Z,0.30
2023-01-11T12:47:41.145Z,0.30
2023-01-11T12:50:15.831Z,0.30
2023-01-11T12:52:55.185Z,0.30
2023-01-11T12:55:39.687Z,0.30
2023-01-11T12:58:14.790Z,0.30
2023-01-11T13:01:05.220Z,0.40
2023-01-11T13:04:13.064Z,0.30
2023-01-11T13:06:44.674Z,0.20
2023-01-11T13:09:21.640Z,0.30
2023-01-11T13:11:55.758Z,0.30
2023-01-11T13:14:40.275Z,0.30
2023-01-11T13:17:19.687Z,0.30
2023-01-11T13:19:54.940Z,0.30
2023-01-11T13:22:27.392Z,0.30
2023-01-11T13:24:57.249Z,0.30
2023-01-11T13:27:26.539Z,0.30
2023-01-11T13:29:57.281Z,0.30
2023-01-11T13:32:29.334Z,0.30
2023-01-11T13:35:04.331Z,0.30
2023-01-11T13:37:36.742Z,0.30
2023-01-11T13:40:12.678Z,0.30
2023-01-11T13:42:44.436Z,0.30
2023-01-11T13:45:20.010Z,0.30
2023-01-11T13:47:53.814Z,0.30
2023-01-11T13:50:30.160Z,0.30
2023-01-11T13:53:09.858Z,0.30
2023-01-11T13:59:47.956Z,0.30
2023-01-11T14:02:26.307Z,0.30
2023-01-11T14:05:03.813Z,0.30
2023-01-11T14:07:44.304Z,0.30
2023-01-11T14:10:28.627Z,0.30
2023-01-11T14:13:46.292Z,0.30
2023-01-11T14:16:21.418Z,0.30
2023-01-11T14:18:58.593Z,0.30
2023-01-11T14:21:33.741Z,0.30
2023-01-11T14:24:04.989Z,0.30
2023-01-11T14:27:11.430Z,0.30
2023-01-11T14:30:06.507Z,0.30
2023-01-11T14:32:49.055Z,0.30
2023-01-11T14:35:51.639Z,0.30
2023-01-11T14:38:38.456Z,0.30
2023-01-11T14:41:24.276Z,0.30
2023-01-11T14:44:08.334Z,0.30
2023-01-11T14:47:03.858Z,0.30
2023-01-11T14:49:55.253Z,0.30
2023-01-11T14:52:39.495Z,0.30
2023-01-11T14:55:18.655Z,0.30
2023-01-11T14:58:27.206Z,0.30
2023-01-11T15:01:12.998Z,0.30
2023-01-11T15:03:58.669Z,0.30
2023-01-11T15:06:39.384Z,0.30
2023-01-11T15:09:42.996Z,0.30
2023-01-11T15:12:18.005Z,0.30
2023-01-11T15:14:48.938Z,0.30
2023-01-11T15:17:39.530Z,0.40
2023-01-11T15:20:09.608Z,0.30
2023-01-11T15:22:38.156Z,0.30
2023-01-11T15:25:10.554Z,0.30
2023-01-11T15:27:45.484Z,0.30
2023-01-11T15:30:37.292Z,0.30
2023-01-11T15:33:45.480Z,0.30
2023-01-11T15:36:15.982Z,0.30
2023-01-11T15:38:50.903Z,0.30
2023-01-11T15:42:07.557Z,0.30
2023-01-11T15:44:54.252Z,0.30
2023-01-11T15:47:36.667Z,0.30
2023-01-11T15:50:14.669Z,0.30
2023-01-11T15:53:12.777Z,0.30
2023-01-11T15:56:26.352Z,0.30
2023-01-11T15:59:28.990Z,0.30
2023-01-11T16:02:35.593Z,0.30
2023-01-11T16:05:17.146Z,0.30
2023-01-11T16:07:54.649Z,0.30
2023-01-11T16:10:47.612Z,0.30
2023-01-11T16:13:57.585Z,0.30
2023-01-11T16:16:32.854Z,0.30
2023-01-11T16:19:11.678Z,0.30
2023-01-11T16:21:47.536Z,0.30
2023-01-11T16:24:27.042Z,0.30
2023-01-11T16:27:05.584Z,0.30
2023-01-11T16:29:46.486Z,0.30
2023-01-11T16:32:26.801Z,0.30
2023-01-11T16:35:18.786Z,0.30
2023-01-11T16:38:07.117Z,0.30
2023-01-11T16:40:47.572Z,0.30
2023-01-11T16:47:13.237Z,0.30
2023-01-11T16:49:48.850Z,0.30
2023-01-11T16:53:00.358Z,0.30
2023-01-11T16:55:39.190Z,0.30
2023-01-11T17:01:19.633Z,0.30
2023-01-11T17:03:50.448Z,0.30
2023-01-11T17:06:21.114Z,0.27
2023-01-11T17:08:52.410Z,0.27
2023-01-11T17:11:26.351Z,0.30
2023-01-11T17:14:27.769Z,0.30
2023-01-11T17:17:02.145Z,0.30
2023-01-11T17:19:32.290Z,0.30
2023-01-11T17:22:04.770Z,0.50
2023-01-11T17:24:35.847Z,0.30
2023-01-11T17:27:08.991Z,0.30
2023-01-11T17:29:40.829Z,0.30
2023-01-11T17:32:16.299Z,0.30
2023-01-11T17:34:45.080Z,0.30
2023-01-11T17:37:18.060Z,0.30
2023-01-11T17:39:50.336Z,0.30
2023-01-11T17:42:39.077Z,0.30
2023-01-11T17:45:20.601Z,0.20
2023-01-11T17:47:50.605Z,0.30
2023-01-11T17:50:32.107Z,0.30
2023-01-11T17:53:06.457Z,0.30
2023-01-11T17:55:36.080Z,0.30
2023-01-11T17:58:19.163Z,0.30
2023-01-11T18:01:22.413Z,0.30
2023-01-11T18:03:55.089Z,0.30
2023-01-11T18:06:29.990Z,0.30
2023-01-11T18:09:09.435Z,0.30
2023-01-11T18:11:48.483Z,0.30
2023-01-11T18:14:27.421Z,0.30
2023-01-11T18:17:06.291Z,0.30
2023-01-11T18:19:36.244Z,0.30
2023-01-11T18:22:07.690Z,0.30
2023-01-11T18:24:43.968Z,0.30
2023-01-11T18:27:29.491Z,0.30
2023-01-11T18:30:03.116Z,0.30
2023-01-11T18:32:37.871Z,0.30
2023-01-11T18:35:13.596Z,0.30
2023-01-11T18:37:41.800Z,0.30
2023-01-11T18:40:16.081Z,0.30
2023-01-11T18:42:54.727Z,0.30
2023-01-11T18:45:33.032Z,0.30
2023-01-11T18:48:01.900Z,0.30
2023-01-11T18:50:32.456Z,0.30
2023-01-11T18:53:04.231Z,0.30
2023-01-11T18:55:37.573Z,0.30
2023-01-11T18:58:14.675Z,0.30
2023-01-11T19:00:48.335Z,0.30
2023-01-11T19:03:17.196Z,0.30
2023-01-11T19:05:49.521Z,0.30
2023-01-11T19:08:18.882Z,0.30
2023-01-11T19:10:54.487Z,0.30
2023-01-11T19:13:23.084Z,0.30
2023-01-11T19:16:03.082Z,0.30
2023-01-11T19:18:42.062Z,0.30
2023-01-11T19:21:13.308Z,0.30
2023-01-11T19:23:44.215Z,0.30
2023-01-11T19:26:16.969Z,0.30
2023-01-11T19:28:49.747Z,0.30
2023-01-11T19:31:20.099Z,0.30
2023-01-11T19:33:49.308Z,0.30
2023-01-11T19:36:32.817Z,0.30
2023-01-11T19:39:09.183Z,0.30
2023-01-11T19:41:51.740Z,0.30
2023-01-11T19:44:20.150Z,0.30
2023-01-11T19:47:10.450Z,0.30
2023-01-11T19:49:41.421Z,0.30
2023-01-11T19:52:13.451Z,0.30
2023-01-11T19:54:47.589Z,0.30
2023-01-11T19:57:20.820Z,0.30
2023-01-11T20:00:07.274Z,0.30
2023-01-11T20:03:18.603Z,0.30
2023-01-11T20:06:11.135Z,0.30
2023-01-11T20:08:45.516Z,0.30
2023-01-11T20:11:19.672Z,0.30
2023-01-11T20:13:56.670Z,0.20
2023-01-11T20:16:28.895Z,0.30
2023-01-11T20:19:02.887Z,0.30
2023-01-11T20:21:47.693Z,0.30
2023-01-11T20:24:29.599Z,0.30
2023-01-11T20:28:39.430Z,0.30
2023-01-11T20:31:09.541Z,0.30
2023-01-11T20:33:39.650Z,0.30
2023-01-11T20:37:34.357Z,0.30
2023-01-11T20:40:20.619Z,0.30
2023-01-11T20:42:56.416Z,0.30
2023-01-11T20:48:28.056Z,0.30
2023-01-11T20:51:37.641Z,0.30
2023-01-11T20:54:12.695Z,0.30
2023-01-11T20:57:10.256Z,0.30
2023-01-11T20:59:42.237Z,0.30
2023-01-11T21:02:19.926Z,0.30
2023-01-11T21:05:07.669Z,0.30
2023-01-11T21:07:36.805Z,0.30
2023-01-11T21:10:14.584Z,0.30
2023-01-11T21:15:27.789Z,0.30
2023-01-11T21:18:02.797Z,0.30
2023-01-11T21:20:35.255Z,0.30
2023-01-11T21:23:03.983Z,0.30
2023-01-11T21:25:35.324Z,0.30
2023-01-11T21:28:06.629Z,0.30
2023-01-11T21:30:35.580Z,0.30
2023-01-11T21:33:06.097Z,0.30
2023-01-11T21:35:35.623Z,0.30
2023-01-11T21:38:05.378Z,0.30
2023-01-11T21:40:35.068Z,0.30
2023-01-11T21:43:04.903Z,0.30
2023-01-11T21:45:33.770Z,0.30
2023-01-11T21:48:02.230Z,0.30
2023-01-11T21:50:30.495Z,0.30
2023-01-11T21:52:59.273Z,0.30
2023-01-11T21:55:27.502Z,0.30
2023-01-11T21:57:55.793Z,0.30
2023-01-11T22:00:27.660Z,0.30
2023-01-11T22:02:57.398Z,0.30
2023-01-11T22:05:26.050Z,0.30
2023-01-11T22:07:54.942Z,0.30
2023-01-11T22:10:23.088Z,0.30
2023-01-11T22:12:51.478Z,0.30
2023-01-11T22:15:19.727Z,0.30
2023-01-11T22:17:49.532Z,0.30
2023-01-11T22:20:18.038Z,0.30
2023-01-11T22:22:47.938Z,0.30
2023-01-11T22:25:17.210Z,0.30
2023-01-11T22:27:46.557Z,0.30
2023-01-11T22:30:15.600Z,0.30
2023-01-11T22:32:43.819Z,0.30
2023-01-11T22:35:13.766Z,0.30
2023-01-11T22:37:42.174Z,0.30
2023-01-11T22:40:11.854Z,0.30
2023-01-11T22:42:40.417Z,0.30
2023-01-11T22:45:10.323Z,0.30
2023-01-11T22:47:38.647Z,0.30
2023-01-11T22:50:07.744Z,0.30
2023-01-11T22:52:38.213Z,0.30
2023-01-11T22:55:08.850Z,0.30
2023-01-11T22:57:37.048Z,0.30
2023-01-11T23:00:07.370Z,0.30
2023-01-11T23:02:35.759Z,0.30
2023-01-11T23:05:03.952Z,0.30
2023-01-11T23:07:32.272Z,0.30
2023-01-11T23:10:02.461Z,0.30
2023-01-11T23:12:47.977Z,0.30
2023-01-11T23:15:16.300Z,0.30
2023-01-11T23:17:44.879Z,0.30
2023-01-11T23:20:13.922Z,0.30
2023-01-11T23:22:42.264Z,0.30
2023-01-11T23:25:12.837Z,0.30
2023-01-11T23:27:42.044Z,0.30
2023-01-11T23:30:11.535Z,0.30
2023-01-11T23:32:42.134Z,0.30
2023-01-11T23:35:10.708Z,0.30
2023-01-11T23:37:38.812Z,0.30
2023-01-11T23:40:08.133Z,0.30
2023-01-11T23:42:38.583Z,0.30
2023-01-11T23:45:07.710Z,0.30
2023-01-11T23:47:34.509Z,0.30
2023-01-11T23:50:02.848Z,0.30
2023-01-11T23:52:32.838Z,0.30
2023-01-11T23:55:01.000Z,0.30
2023-01-11T23:57:29.044Z,0.30
2023-01-11T23:59:58.893Z,0.30
